createdAt,value
2022-08-02T00:00:24.111Z,14.43
2022-08-02T00:03:30.862Z,14.03
2022-08-02T00:06:41.073Z,14.44
2022-08-02T00:09:47.549Z,14.52
2022-08-02T00:12:54.194Z,14.50
2022-08-02T00:16:06.286Z,14.77
2022-08-02T00:19:13.046Z,14.53
2022-08-02T00:22:21.092Z,14.10
2022-08-02T00:25:28.851Z,13.99
2022-08-02T00:28:35.134Z,14.72
2022-08-02T00:31:48.180Z,15.05
2022-08-02T00:34:56.987Z,15.00
2022-08-02T00:38:06.551Z,15.27
2022-08-02T00:41:16.457Z,14.80
2022-08-02T00:44:25.780Z,14.60
2022-08-02T00:47:34.622Z,14.59
2022-08-02T00:50:42.756Z,14.66
2022-08-02T00:53:50.912Z,14.65
2022-08-02T00:57:00.399Z,14.84
2022-08-02T01:00:08.710Z,14.71
2022-08-02T01:03:15.101Z,13.75
2022-08-02T01:06:22.268Z,13.27
2022-08-02T01:09:30.410Z,13.43
2022-08-02T01:12:38.562Z,13.18
2022-08-02T01:15:52.020Z,13.81
2022-08-02T01:19:04.119Z,13.41
2022-08-02T01:23:01.182Z,13.72
2022-08-02T01:26:33.366Z,13.30
2022-08-02T01:29:47.257Z,13.01
2022-08-02T01:33:01.394Z,12.71
2022-08-02T01:36:14.585Z,12.92
2022-08-02T01:39:26.459Z,12.86
2022-08-02T01:42:41.852Z,12.55
2022-08-02T01:45:50.455Z,12.99
2022-08-02T01:48:59.163Z,13.16
2022-08-02T01:52:26.324Z,13.61
2022-08-02T01:55:58.228Z,13.88
2022-08-02T01:59:05.112Z,13.56
2022-08-02T02:02:17.460Z,13.55
2022-08-02T02:05:30.955Z,13.66
2022-08-02T02:08:41.221Z,12.64
2022-08-02T02:12:12.049Z,12.27
2022-08-02T02:15:15.579Z,12.38
2022-08-02T02:18:28.493Z,12.54
2022-08-02T02:21:35.204Z,13.34
2022-08-02T02:24:42.874Z,13.23
2022-08-02T02:27:59.575Z,13.36
2022-08-02T02:31:11.765Z,13.58
2022-08-02T02:34:28.867Z,13.87
2022-08-02T02:37:37.638Z,14.03
2022-08-02T02:40:47.772Z,13.92
2022-08-02T02:43:59.700Z,13.85
2022-08-02T02:47:10.640Z,13.79
2022-08-02T02:50:25.800Z,13.89
2022-08-02T02:54:32.328Z,13.67
2022-08-02T02:57:00.474Z,14.00
2022-08-02T03:00:08.709Z,13.84
2022-08-02T03:03:16.788Z,13.77
2022-08-02T03:06:30.630Z,13.78
2022-08-02T03:09:41.076Z,13.78
2022-08-02T03:12:47.887Z,13.63
2022-08-02T03:15:54.904Z,12.65
2022-08-02T03:19:06.445Z,12.79
2022-08-02T03:22:14.471Z,12.43
2022-08-02T03:25:24.470Z,12.24
2022-08-02T03:28:31.443Z,12.24
2022-08-02T03:31:42.105Z,12.26
2022-08-02T03:34:48.840Z,12.08
2022-08-02T03:38:01.099Z,12.46
2022-08-02T03:41:09.027Z,12.57
2022-08-02T03:44:16.293Z,12.19
2022-08-02T03:47:25.517Z,12.14
2022-08-02T03:50:33.489Z,12.28
2022-08-02T03:53:42.533Z,11.83
2022-08-02T03:56:51.659Z,11.89
2022-08-02T03:59:59.034Z,11.99
2022-08-02T04:03:13.180Z,11.87
2022-08-02T04:06:28.648Z,11.89
2022-08-02T04:09:38.829Z,12.31
2022-08-02T04:12:46.116Z,12.38
2022-08-02T04:15:57.640Z,13.09
2022-08-02T04:19:10.402Z,13.27
2022-08-02T04:22:26.944Z,13.25
2022-08-02T04:25:40.601Z,13.35
2022-08-02T04:28:50.286Z,13.89
2022-08-02T04:31:58.412Z,14.05
2022-08-02T04:35:19.048Z,13.70
2022-08-02T04:38:26.781Z,13.38
2022-08-02T04:41:49.133Z,13.73
2022-08-02T04:44:55.688Z,13.86
2022-08-02T04:48:06.677Z,14.75
2022-08-02T04:51:18.402Z,14.53
2022-08-02T04:54:29.620Z,14.96
2022-08-02T04:57:54.829Z,15.50
2022-08-02T05:01:04.057Z,15.63
2022-08-02T05:04:15.122Z,15.92
2022-08-02T05:07:31.909Z,16.18
2022-08-02T05:10:53.616Z,16.02
2022-08-02T05:14:01.499Z,15.94
2022-08-02T05:17:14.254Z,16.50
2022-08-02T05:20:32.301Z,16.56
2022-08-02T05:23:38.990Z,16.87
2022-08-02T05:27:21.138Z,17.11
2022-08-02T05:30:44.815Z,17.28
2022-08-02T05:33:53.778Z,17.62
2022-08-02T05:37:02.860Z,17.41
2022-08-02T05:40:25.396Z,18.11
2022-08-02T05:43:32.853Z,18.11
2022-08-02T05:46:57.214Z,17.90
2022-08-02T05:50:03.713Z,18.08
2022-08-02T05:53:34.160Z,19.01
2022-08-02T05:56:56.377Z,19.18
2022-08-02T06:00:38.141Z,19.35
2022-08-02T06:04:07.929Z,19.38
2022-08-02T06:07:34.546Z,19.67
2022-08-02T06:10:42.711Z,19.56
2022-08-02T06:13:54.441Z,19.54
2022-08-02T06:17:06.127Z,20.01
2022-08-02T06:20:38.142Z,20.11
2022-08-02T06:23:57.755Z,20.32
2022-08-02T06:27:48.231Z,20.55
2022-08-02T06:31:08.270Z,20.76
2022-08-02T06:34:16.187Z,20.33
2022-08-02T06:37:48.895Z,20.93
2022-08-02T06:41:05.141Z,21.53
2022-08-02T06:44:45.623Z,21.28
2022-08-02T06:47:38.794Z,21.19
2022-08-02T06:50:59.150Z,21.95
2022-08-02T06:54:07.596Z,22.17
2022-08-02T06:57:15.076Z,22.02
2022-08-02T07:00:44.450Z,22.67
2022-08-02T07:03:50.685Z,22.14
2022-08-02T07:07:01.559Z,22.37
2022-08-02T07:10:10.722Z,22.26
2022-08-02T07:13:39.284Z,22.73
2022-08-02T07:16:47.848Z,22.18
2022-08-02T07:23:36.199Z,23.42
2022-08-02T07:27:10.067Z,22.75
2022-08-02T07:30:15.737Z,22.94
2022-08-02T07:33:37.028Z,23.50
2022-08-02T07:37:05.808Z,23.23
2022-08-02T07:40:20.795Z,23.19
2022-08-02T07:43:29.255Z,24.06
2022-08-02T07:46:35.682Z,23.66
2022-08-02T07:50:20.377Z,24.07
2022-08-02T07:53:49.949Z,23.73
2022-08-02T07:57:01.329Z,24.01
2022-08-02T08:00:21.812Z,24.29
2022-08-02T08:03:33.828Z,24.26
2022-08-02T08:06:44.433Z,24.50
2022-08-02T08:10:03.354Z,24.62
2022-08-02T08:13:32.509Z,24.10
2022-08-02T08:16:41.735Z,24.55
2022-08-02T08:19:54.253Z,24.65
2022-08-02T08:23:13.423Z,24.94
2022-08-02T08:26:22.657Z,24.57
2022-08-02T08:29:29.376Z,24.33
2022-08-02T08:32:45.331Z,24.80
2022-08-02T08:35:59.798Z,25.11
2022-08-02T08:39:24.739Z,25.59
2022-08-02T08:42:42.477Z,24.58
2022-08-02T08:45:55.827Z,25.09
2022-08-02T08:49:52.346Z,26.02
2022-08-02T08:53:05.075Z,26.05
2022-08-02T08:56:22.888Z,25.29
2022-08-02T08:59:30.344Z,25.92
2022-08-02T09:02:52.953Z,25.60
2022-08-02T09:06:09.610Z,25.95
2022-08-02T09:09:27.776Z,25.74
2022-08-02T09:12:36.763Z,25.69
2022-08-02T09:16:16.504Z,26.28
2022-08-02T09:19:26.795Z,26.11
2022-08-02T09:23:06.913Z,25.59
2022-08-02T09:26:14.861Z,25.68
2022-08-02T09:29:34.518Z,25.94
2022-08-02T09:32:54.944Z,26.48
2022-08-02T09:36:08.352Z,26.38
2022-08-02T09:39:18.008Z,27.26
2022-08-02T09:42:31.732Z,27.47
2022-08-02T09:45:41.972Z,26.45
2022-08-02T09:48:52.870Z,26.98
2022-08-02T09:51:59.911Z,26.12
2022-08-02T09:55:18.543Z,27.47
2022-08-02T09:58:29.608Z,27.55
2022-08-02T10:01:37.516Z,27.40
2022-08-02T10:04:52.434Z,27.52
2022-08-02T10:08:00.373Z,26.94
2022-08-02T10:11:22.140Z,28.64
2022-08-02T10:14:31.893Z,27.56
2022-08-02T10:17:45.442Z,28.37
2022-08-02T10:20:53.534Z,27.29
2022-08-02T10:24:14.753Z,28.14
2022-08-02T10:27:26.156Z,27.59
2022-08-02T10:30:42.644Z,28.16
2022-08-02T10:34:23.210Z,28.84
2022-08-02T10:37:36.506Z,28.31
2022-08-02T10:40:47.940Z,27.55
2022-08-02T10:44:07.876Z,27.31
2022-08-02T10:47:32.171Z,27.63
2022-08-02T10:51:04.349Z,27.78
2022-08-02T10:54:11.154Z,27.52
2022-08-02T10:57:20.414Z,27.74
2022-08-02T11:00:30.538Z,27.76
2022-08-02T11:03:42.557Z,29.11
2022-08-02T11:07:10.093Z,28.71
2022-08-02T11:10:43.209Z,28.12
2022-08-02T11:14:03.765Z,28.69
2022-08-02T11:17:20.356Z,28.84
2022-08-02T11:20:27.484Z,28.44
2022-08-02T11:23:46.113Z,28.74
2022-08-02T11:26:56.196Z,29.68
2022-08-02T11:30:23.553Z,29.80
2022-08-02T11:33:37.927Z,29.28
2022-08-02T11:36:49.419Z,29.61
2022-08-02T11:39:56.060Z,29.23
2022-08-02T11:43:02.902Z,28.65
2022-08-02T11:46:15.306Z,28.64
2022-08-02T11:49:23.590Z,28.70
2022-08-02T11:52:35.115Z,29.32
2022-08-02T11:55:42.149Z,30.38
2022-08-02T11:59:14.584Z,29.65
2022-08-02T12:02:22.604Z,29.67
2022-08-02T12:06:04.471Z,29.12
2022-08-02T12:09:06.068Z,29.44
2022-08-02T12:12:26.580Z,29.47
2022-08-02T12:15:49.294Z,29.82
2022-08-02T12:19:14.396Z,30.54
2022-08-02T12:22:29.388Z,29.77
2022-08-02T12:25:36.226Z,30.10
2022-08-02T12:28:42.775Z,29.48
2022-08-02T12:31:55.810Z,29.96
2022-08-02T12:35:08.117Z,29.48
2022-08-02T12:38:18.190Z,31.24
2022-08-02T12:41:31.113Z,30.48
2022-08-02T12:44:40.523Z,30.25
2022-08-02T12:47:57.847Z,29.97
2022-08-02T12:51:50.734Z,29.57
2022-08-02T12:55:01.826Z,29.42
2022-08-02T12:58:08.658Z,31.62
2022-08-02T13:01:25.436Z,29.88
2022-08-02T13:04:31.932Z,29.33
2022-08-02T13:07:41.405Z,29.88
2022-08-02T13:10:55.295Z,29.39
2022-08-02T13:14:02.746Z,30.12
2022-08-02T13:17:11.314Z,29.12
2022-08-02T13:20:17.805Z,30.58
2022-08-02T13:23:24.663Z,29.53
2022-08-02T13:27:07.903Z,30.80
2022-08-02T13:30:15.691Z,31.47
2022-08-02T13:33:23.140Z,29.95
2022-08-02T13:36:29.811Z,30.49
2022-08-02T13:39:39.153Z,29.84
2022-08-02T13:42:47.219Z,29.83
2022-08-02T13:45:54.076Z,29.11
2022-08-02T13:49:00.656Z,29.23
2022-08-02T13:52:07.746Z,29.13
2022-08-02T13:55:14.040Z,29.22
2022-08-02T13:58:21.743Z,29.45
2022-08-02T14:01:28.678Z,30.35
2022-08-02T14:04:36.202Z,29.50
2022-08-02T14:07:43.392Z,29.85
2022-08-02T14:10:50.790Z,30.30
2022-08-02T14:13:58.665Z,29.48
2022-08-02T14:17:05.494Z,29.28
2022-08-02T14:20:20.178Z,28.97
2022-08-02T14:23:50.215Z,28.44
2022-08-02T14:26:58.934Z,28.06
2022-08-02T14:30:08.374Z,28.04
2022-08-02T14:33:19.091Z,27.79
2022-08-02T14:36:27.131Z,27.87
2022-08-02T14:39:42.786Z,27.69
2022-08-02T14:43:05.105Z,27.46
2022-08-02T14:46:12.955Z,27.50
2022-08-02T14:49:24.529Z,27.65
2022-08-02T14:52:33.424Z,27.22
2022-08-02T14:55:39.740Z,27.34
2022-08-02T14:58:45.882Z,27.46
2022-08-02T15:01:54.123Z,27.31
2022-08-02T15:05:00.936Z,27.42
2022-08-02T15:08:11.312Z,27.33
2022-08-02T15:11:23.760Z,27.49
2022-08-02T15:14:32.532Z,27.37
2022-08-02T15:17:40.598Z,27.42
2022-08-02T15:20:57.311Z,27.46
2022-08-02T15:24:04.732Z,27.27
2022-08-02T15:27:14.348Z,27.20
2022-08-02T15:30:21.552Z,26.74
2022-08-02T15:33:29.853Z,26.67
2022-08-02T15:36:36.425Z,26.93
2022-08-02T15:39:43.073Z,26.94
2022-08-02T15:42:49.616Z,26.85
2022-08-02T15:45:56.485Z,26.72
2022-08-02T15:49:04.326Z,26.82
2022-08-02T15:52:11.603Z,26.86
2022-08-02T15:55:18.374Z,26.86
2022-08-02T15:58:24.714Z,26.85
2022-08-02T16:01:37.100Z,26.69
2022-08-02T16:04:45.860Z,26.61
2022-08-02T16:07:52.707Z,26.70
2022-08-02T16:10:58.902Z,26.54
2022-08-02T16:14:05.540Z,26.39
2022-08-02T16:17:22.042Z,26.43
2022-08-02T16:20:40.742Z,26.34
2022-08-02T16:24:01.715Z,26.24
2022-08-02T16:27:10.036Z,26.34
2022-08-02T16:30:16.591Z,26.16
2022-08-02T16:33:22.905Z,26.02
2022-08-02T16:36:31.191Z,25.76
2022-08-02T16:39:39.285Z,25.84
2022-08-02T16:42:50.636Z,25.94
2022-08-02T16:45:59.435Z,25.88
2022-08-02T16:49:06.268Z,25.60
2022-08-02T16:52:33.963Z,25.62
2022-08-02T16:55:40.430Z,25.44
2022-08-02T16:58:59.795Z,25.30
2022-08-02T17:02:15.119Z,25.31
2022-08-02T17:05:24.901Z,25.27
2022-08-02T17:12:15.825Z,25.31
2022-08-02T17:16:16.617Z,25.20
2022-08-02T17:18:49.618Z,25.21
2022-08-02T17:21:55.999Z,25.26
2022-08-02T17:25:06.118Z,24.89
2022-08-02T17:28:17.882Z,24.85
2022-08-02T17:31:29.518Z,24.87
2022-08-02T17:34:37.743Z,25.01
2022-08-02T17:37:54.729Z,25.08
2022-08-02T17:41:08.314Z,24.74
2022-08-02T17:44:36.977Z,24.77
2022-08-02T17:48:04.708Z,24.36
2022-08-02T17:51:10.911Z,24.54
2022-08-02T17:54:18.799Z,24.45
2022-08-02T17:57:55.279Z,24.53
2022-08-02T18:00:54.004Z,24.46
2022-08-02T18:04:00.892Z,24.24
2022-08-02T18:07:09.501Z,24.42
2022-08-02T18:10:18.629Z,24.14
2022-08-02T18:13:28.500Z,23.80
2022-08-02T18:16:40.418Z,23.80
2022-08-02T18:19:57.300Z,23.74
2022-08-02T18:23:11.090Z,23.51
2022-08-02T18:26:21.104Z,23.42
2022-08-02T18:29:30.140Z,23.46
2022-08-02T18:33:59.416Z,23.37
2022-08-02T18:36:24.411Z,23.07
2022-08-02T18:39:32.980Z,23.16
2022-08-02T18:42:39.345Z,23.07
2022-08-02T18:46:06.476Z,23.15
2022-08-02T18:49:15.457Z,22.82
2022-08-02T18:52:31.645Z,22.81
2022-08-02T18:56:03.263Z,22.59
2022-08-02T18:59:04.924Z,22.60
2022-08-02T19:02:18.464Z,22.47
2022-08-02T19:05:51.557Z,22.43
2022-08-02T19:09:05.477Z,22.50
2022-08-02T19:12:26.010Z,22.40
2022-08-02T19:15:34.973Z,22.30
2022-08-02T19:18:43.165Z,22.15
2022-08-02T19:22:17.411Z,21.78
2022-08-02T19:25:19.699Z,21.50
2022-08-02T19:28:26.780Z,21.53
2022-08-02T19:31:34.745Z,21.33
2022-08-02T19:35:02.256Z,21.51
2022-08-02T19:38:10.514Z,21.69
2022-08-02T19:41:18.023Z,21.43
2022-08-02T19:44:29.620Z,21.43
2022-08-02T19:51:08.045Z,21.13
2022-08-02T19:54:14.296Z,20.91
2022-08-02T19:57:21.121Z,20.39
2022-08-02T20:00:28.584Z,20.78
2022-08-02T20:07:07.360Z,20.70
2022-08-02T20:10:24.734Z,20.25
2022-08-02T20:13:34.725Z,20.66
2022-08-02T20:16:54.237Z,20.82
2022-08-02T20:20:01.543Z,20.40
2022-08-02T20:23:32.423Z,19.37
2022-08-02T20:26:47.727Z,19.55
2022-08-02T20:29:55.541Z,19.50
2022-08-02T20:33:21.354Z,19.33
2022-08-02T20:36:29.920Z,18.96
2022-08-02T20:39:43.010Z,19.20
2022-08-02T20:42:50.250Z,19.17
2022-08-02T20:46:00.646Z,19.25
2022-08-02T20:49:12.917Z,19.45
2022-08-02T20:52:26.950Z,19.45
2022-08-02T20:55:42.179Z,19.25
2022-08-02T20:58:52.620Z,18.76
2022-08-02T21:01:58.856Z,18.74
2022-08-02T21:05:07.802Z,19.23
2022-08-02T21:08:25.261Z,19.07
2022-08-02T21:11:33.509Z,17.96
2022-08-02T21:14:43.669Z,17.97
2022-08-02T21:17:58.674Z,18.46
2022-08-02T21:21:09.050Z,18.70
2022-08-02T21:24:15.546Z,18.42
2022-08-02T21:27:52.165Z,18.01
2022-08-02T21:30:52.869Z,17.75
2022-08-02T21:34:00.841Z,17.85
2022-08-02T21:37:10.085Z,18.14
2022-08-02T21:40:17.009Z,17.75
2022-08-02T21:43:35.340Z,17.97
2022-08-02T21:46:49.096Z,18.21
2022-08-02T21:50:10.506Z,18.13
2022-08-02T21:53:42.106Z,17.54
2022-08-02T21:56:48.378Z,17.45
2022-08-02T21:59:56.669Z,17.04
2022-08-02T22:03:22.374Z,17.10
2022-08-02T22:06:29.337Z,16.56
2022-08-02T22:09:43.809Z,16.46
2022-08-02T22:12:54.124Z,16.78
2022-08-02T22:16:05.259Z,16.42
2022-08-02T22:19:17.690Z,16.56
2022-08-02T22:22:28.228Z,17.03
2022-08-02T22:25:37.340Z,16.67
2022-08-02T22:28:50.360Z,16.82
2022-08-02T22:32:02.916Z,17.00
2022-08-02T22:35:09.009Z,15.97
2022-08-02T22:38:18.532Z,15.83
2022-08-02T22:41:25.271Z,15.88
2022-08-02T22:44:54.622Z,15.89
2022-08-02T22:48:03.327Z,16.05
2022-08-02T22:51:09.864Z,16.00
2022-08-02T22:54:16.566Z,16.52
2022-08-02T22:57:30.285Z,16.36
2022-08-02T22:58:36.989Z,25.40
2022-08-02T22:59:06.691Z,21.28
2022-08-02T22:59:08.077Z,20.68
2022-08-02T23:00:38.041Z,16.18
2022-08-02T23:03:46.453Z,16.97
2022-08-02T23:06:52.881Z,16.86
2022-08-02T23:09:59.279Z,17.03
2022-08-02T23:13:06.508Z,17.04
2022-08-02T23:16:30.310Z,17.07
2022-08-02T23:19:53.213Z,16.98
2022-08-02T23:23:03.168Z,16.72
2022-08-02T23:26:18.324Z,16.16
2022-08-02T23:29:25.152Z,15.53
2022-08-02T23:32:31.750Z,15.99
2022-08-02T23:35:39.635Z,15.74
2022-08-02T23:38:45.856Z,15.57
2022-08-02T23:41:54.865Z,15.38
2022-08-02T23:45:02.212Z,15.80
2022-08-02T23:48:11.711Z,15.79
2022-08-02T23:51:22.161Z,15.32
2022-08-02T23:54:29.068Z,15.44
2022-08-02T23:57:35.999Z,15.85
